createdAt,value
2023-05-03T00:01:30.112Z,98.77
2023-05-03T00:03:57.771Z,98.95
2023-05-03T00:06:25.645Z,99.32
2023-05-03T00:08:53.579Z,99.32
2023-05-03T00:11:21.748Z,99.33
2023-05-03T00:13:49.360Z,99.59
2023-05-03T00:16:17.172Z,99.62
2023-05-03T00:18:45.660Z,99.43
2023-05-03T00:21:14.656Z,99.61
2023-05-03T00:23:42.238Z,99.28
2023-05-03T00:26:09.915Z,99.68
2023-05-03T00:28:38.195Z,99.54
2023-05-03T00:31:09.883Z,99.25
2023-05-03T00:33:38.623Z,99.13
2023-05-03T00:36:14.729Z,99.02
2023-05-03T00:38:43.018Z,99.02
2023-05-03T00:41:11.533Z,98.87
2023-05-03T00:43:39.335Z,99.07
2023-05-03T00:46:16.686Z,98.68
2023-05-03T00:48:46.980Z,98.89
2023-05-03T00:51:16.037Z,98.57
2023-05-03T00:53:43.963Z,98.61
2023-05-03T00:56:12.062Z,98.71
2023-05-03T00:58:40.613Z,98.76
2023-05-03T01:01:08.976Z,98.72
2023-05-03T01:03:41.793Z,98.77
2023-05-03T01:06:28.841Z,98.62
2023-05-03T01:09:22.994Z,98.53
2023-05-03T01:12:14.414Z,98.84
2023-05-03T01:14:58.447Z,99.09
2023-05-03T01:17:29.441Z,99.18
2023-05-03T01:20:19.419Z,99.08
2023-05-03T01:22:51.232Z,99.04
2023-05-03T01:25:18.836Z,99.22
2023-05-03T01:27:46.696Z,98.95
2023-05-03T01:30:14.625Z,99.05
2023-05-03T01:32:47.758Z,99.18
2023-05-03T01:35:21.260Z,99.37
2023-05-03T01:37:49.829Z,99.43
2023-05-03T01:40:19.845Z,99.81
2023-05-03T01:42:48.202Z,99.85
2023-05-03T01:45:16.172Z,99.83
2023-05-03T01:47:43.821Z,99.98
2023-05-03T01:50:11.518Z,100.00
2023-05-03T01:52:39.169Z,100.00
2023-05-03T01:55:07.438Z,100.00
2023-05-03T01:57:35.122Z,100.00
2023-05-03T02:00:04.625Z,100.00
2023-05-03T02:02:40.281Z,100.00
2023-05-03T02:05:09.747Z,100.00
2023-05-03T02:07:38.070Z,100.00
2023-05-03T02:10:06.939Z,100.00
2023-05-03T02:12:34.569Z,100.00
2023-05-03T02:15:02.154Z,100.00
2023-05-03T02:17:29.783Z,100.00
2023-05-03T02:19:57.621Z,100.00
2023-05-03T02:22:25.260Z,100.00
2023-05-03T02:24:52.873Z,100.00
2023-05-03T02:27:20.499Z,100.00
2023-05-03T02:29:48.335Z,100.00
2023-05-03T02:32:16.098Z,100.00
2023-05-03T02:34:47.988Z,100.00
2023-05-03T02:37:17.468Z,100.00
2023-05-03T02:39:45.769Z,100.00
2023-05-03T02:42:14.090Z,100.00
2023-05-03T02:44:41.816Z,100.00
2023-05-03T02:47:10.448Z,100.00
2023-05-03T02:49:40.382Z,100.00
2023-05-03T02:52:08.251Z,100.00
2023-05-03T02:54:35.878Z,100.00
2023-05-03T02:57:04.709Z,100.00
2023-05-03T02:59:32.968Z,100.00
2023-05-03T03:02:01.345Z,100.00
2023-05-03T03:04:30.247Z,100.00
2023-05-03T03:06:58.335Z,100.00
2023-05-03T03:09:26.362Z,100.00
2023-05-03T03:11:54.380Z,100.00
2023-05-03T03:14:22.728Z,100.00
2023-05-03T03:16:51.523Z,100.00
2023-05-03T03:19:19.192Z,100.00
2023-05-03T03:21:46.899Z,100.00
2023-05-03T03:24:15.782Z,100.00
2023-05-03T03:26:43.379Z,100.00
2023-05-03T03:29:11.020Z,100.00
2023-05-03T03:31:40.870Z,100.00
2023-05-03T03:34:08.996Z,100.00
2023-05-03T03:36:38.006Z,100.00
2023-05-03T03:39:06.587Z,100.00
2023-05-03T03:41:36.120Z,100.00
2023-05-03T03:44:04.512Z,100.00
2023-05-03T03:46:32.331Z,100.00
2023-05-03T03:49:00.362Z,100.00
2023-05-03T03:51:28.426Z,100.00
2023-05-03T03:53:56.644Z,100.00
2023-05-03T03:56:26.113Z,100.00
2023-05-03T03:58:54.244Z,100.00
2023-05-03T04:01:22.053Z,100.00
2023-05-03T04:03:50.046Z,100.00
2023-05-03T04:06:18.305Z,100.00
2023-05-03T04:08:47.557Z,100.00
2023-05-03T04:11:15.970Z,100.00
2023-05-03T04:13:49.660Z,100.00
2023-05-03T04:16:17.438Z,100.00
2023-05-03T04:18:45.550Z,100.00
2023-05-03T04:21:13.248Z,100.00
2023-05-03T04:23:41.870Z,100.00
2023-05-03T04:26:23.574Z,100.00
2023-05-03T04:28:56.006Z,100.00
2023-05-03T04:31:25.178Z,100.00
2023-05-03T04:33:54.087Z,100.00
2023-05-03T04:36:25.555Z,100.00
2023-05-03T04:38:54.160Z,100.00
2023-05-03T04:41:22.252Z,100.00
2023-05-03T04:43:50.689Z,100.00
2023-05-03T04:46:18.597Z,100.00
2023-05-03T04:48:46.754Z,100.00
2023-05-03T04:51:14.838Z,100.00
2023-05-03T04:53:42.786Z,100.00
2023-05-03T04:56:14.266Z,100.00
2023-05-03T04:58:43.084Z,100.00
2023-05-03T05:01:12.296Z,100.00
2023-05-03T05:03:40.237Z,100.00
2023-05-03T05:06:12.576Z,100.00
2023-05-03T05:08:41.263Z,100.00
2023-05-03T05:11:11.935Z,100.00
2023-05-03T05:13:40.281Z,100.00
2023-05-03T05:16:07.889Z,100.00
2023-05-03T05:18:36.507Z,100.00
2023-05-03T05:21:04.884Z,100.00
2023-05-03T05:23:33.514Z,100.00
2023-05-03T05:26:01.219Z,100.00
2023-05-03T05:28:32.302Z,100.00
2023-05-03T05:31:00.944Z,100.00
2023-05-03T05:33:28.962Z,100.00
2023-05-03T05:35:57.616Z,100.00
2023-05-03T05:38:25.307Z,100.00
2023-05-03T05:40:55.806Z,100.00
2023-05-03T05:43:23.736Z,100.00
2023-05-03T05:45:51.384Z,100.00
2023-05-03T05:48:19.930Z,100.00
2023-05-03T05:50:48.855Z,100.00
2023-05-03T05:53:17.533Z,100.00
2023-05-03T05:55:50.903Z,100.00
2023-05-03T05:58:18.977Z,100.00
2023-05-03T06:00:50.443Z,99.94
2023-05-03T06:03:18.359Z,99.33
2023-05-03T06:05:49.348Z,98.16
2023-05-03T06:08:17.176Z,97.48
2023-05-03T06:10:44.952Z,97.33
2023-05-03T06:13:12.698Z,97.18
2023-05-03T06:15:41.546Z,97.08
2023-05-03T06:18:09.470Z,96.57
2023-05-03T06:20:37.199Z,96.50
2023-05-03T06:23:05.371Z,96.71
2023-05-03T06:25:33.662Z,96.38
2023-05-03T06:28:01.318Z,96.63
2023-05-03T06:30:32.077Z,96.49
2023-05-03T06:33:05.552Z,95.91
2023-05-03T06:35:33.312Z,95.49
2023-05-03T06:38:00.973Z,94.91
2023-05-03T06:40:28.751Z,94.78
2023-05-03T06:42:56.616Z,94.17
2023-05-03T06:45:36.486Z,93.62
2023-05-03T06:48:04.879Z,93.37
2023-05-03T06:50:32.542Z,93.08
2023-05-03T06:53:00.206Z,93.02
2023-05-03T06:55:28.261Z,92.80
2023-05-03T06:57:56.135Z,92.00
2023-05-03T07:00:26.089Z,91.75
2023-05-03T07:02:53.798Z,89.95
2023-05-03T07:05:21.570Z,89.41
2023-05-03T07:07:49.186Z,88.53
2023-05-03T07:10:16.874Z,87.49
2023-05-03T07:12:44.473Z,86.87
2023-05-03T07:15:12.125Z,86.59
2023-05-03T07:17:39.758Z,84.98
2023-05-03T07:20:08.191Z,82.93
2023-05-03T07:22:35.844Z,80.11
2023-05-03T07:25:04.924Z,80.54
2023-05-03T07:27:32.724Z,82.00
2023-05-03T07:30:00.689Z,80.42
2023-05-03T07:32:28.546Z,80.02
2023-05-03T07:34:56.313Z,80.01
2023-05-03T07:37:25.016Z,79.26
2023-05-03T07:39:52.683Z,78.11
2023-05-03T07:42:20.672Z,75.66
2023-05-03T07:44:48.407Z,76.00
2023-05-03T07:47:16.023Z,75.51
2023-05-03T07:49:43.859Z,72.22
2023-05-03T07:52:11.584Z,72.26
2023-05-03T07:54:39.255Z,68.91
2023-05-03T07:57:07.797Z,67.36
2023-05-03T07:59:35.952Z,69.37
2023-05-03T08:02:03.666Z,69.33
2023-05-03T08:04:31.836Z,69.83
2023-05-03T08:07:04.191Z,69.07
2023-05-03T08:09:31.788Z,69.01
2023-05-03T08:11:59.455Z,69.92
2023-05-03T08:14:27.998Z,69.56
2023-05-03T08:16:55.650Z,68.20
2023-05-03T08:19:23.461Z,69.00
2023-05-03T08:21:54.278Z,69.36
2023-05-03T08:24:21.928Z,67.70
2023-05-03T08:26:50.536Z,65.23
2023-05-03T08:29:18.264Z,65.82
2023-05-03T08:31:46.502Z,65.24
2023-05-03T08:34:14.204Z,64.71
2023-05-03T08:36:41.809Z,65.33
2023-05-03T08:39:10.325Z,65.48
2023-05-03T08:41:39.647Z,65.49
2023-05-03T08:44:08.429Z,66.37
2023-05-03T08:46:38.335Z,65.85
2023-05-03T08:49:09.162Z,65.00
2023-05-03T08:51:41.118Z,62.36
2023-05-03T08:54:08.829Z,60.53
2023-05-03T08:56:41.473Z,60.05
2023-05-03T08:59:11.737Z,59.29
2023-05-03T09:01:40.777Z,59.70
2023-05-03T09:04:10.192Z,59.76
2023-05-03T09:06:38.351Z,59.44
2023-05-03T09:09:07.588Z,57.49
2023-05-03T09:11:37.711Z,58.09
2023-05-03T09:14:16.829Z,58.69
2023-05-03T09:16:47.252Z,58.63
2023-05-03T09:19:16.268Z,57.79
2023-05-03T09:21:49.062Z,58.06
2023-05-03T09:24:18.634Z,58.52
2023-05-03T09:26:48.915Z,59.38
2023-05-03T09:29:34.146Z,59.33
2023-05-03T09:32:06.001Z,58.67
2023-05-03T09:34:35.593Z,58.03
2023-05-03T09:37:03.231Z,57.26
2023-05-03T09:39:31.354Z,58.52
2023-05-03T09:41:59.127Z,59.40
2023-05-03T09:44:44.888Z,59.06
2023-05-03T09:47:12.852Z,59.11
2023-05-03T09:49:40.730Z,58.45
2023-05-03T09:52:08.801Z,57.75
2023-05-03T09:54:37.049Z,57.22
2023-05-03T09:57:05.880Z,57.11
2023-05-03T09:59:34.925Z,56.33
2023-05-03T10:02:05.523Z,57.45
2023-05-03T10:04:43.804Z,57.21
2023-05-03T10:07:14.414Z,57.16
2023-05-03T10:09:48.647Z,56.53
2023-05-03T10:12:19.493Z,56.95
2023-05-03T10:14:48.914Z,56.80
2023-05-03T10:17:47.011Z,56.64
2023-05-03T10:20:40.989Z,57.25
2023-05-03T10:23:10.892Z,56.98
2023-05-03T10:25:40.071Z,56.62
2023-05-03T10:28:09.297Z,56.66
2023-05-03T10:30:38.792Z,56.93
2023-05-03T10:33:12.411Z,56.61
2023-05-03T10:35:42.129Z,56.07
2023-05-03T10:38:17.131Z,55.80
2023-05-03T10:40:44.859Z,55.83
2023-05-03T10:43:34.137Z,56.72
2023-05-03T10:46:01.804Z,57.69
2023-05-03T10:48:30.750Z,56.83
2023-05-03T10:51:28.553Z,57.21
2023-05-03T10:53:56.187Z,56.66
2023-05-03T10:56:24.079Z,57.31
2023-05-03T10:58:56.087Z,57.13
2023-05-03T11:01:25.225Z,56.99
2023-05-03T11:04:09.567Z,56.51
2023-05-03T11:06:41.104Z,55.97
2023-05-03T11:09:12.083Z,56.18
2023-05-03T11:11:41.066Z,55.66
2023-05-03T11:14:09.755Z,56.20
2023-05-03T11:16:40.744Z,54.77
2023-05-03T11:19:09.203Z,53.73
2023-05-03T11:21:37.175Z,54.07
2023-05-03T11:24:05.753Z,53.80
2023-05-03T11:26:39.746Z,53.78
2023-05-03T11:29:10.570Z,54.47
2023-05-03T11:31:38.419Z,53.68
2023-05-03T11:34:06.835Z,54.57
2023-05-03T11:36:37.199Z,54.63
2023-05-03T11:39:05.927Z,54.69
2023-05-03T11:41:33.776Z,54.51
2023-05-03T11:44:15.406Z,54.73
2023-05-03T11:46:45.798Z,54.50
2023-05-03T11:49:18.368Z,54.34
2023-05-03T11:51:49.232Z,55.24
2023-05-03T11:54:25.242Z,54.53
2023-05-03T11:56:59.453Z,54.63
2023-05-03T11:59:36.183Z,54.46
2023-05-03T12:02:05.724Z,53.61
2023-05-03T12:04:34.054Z,53.39
2023-05-03T12:07:04.561Z,52.79
2023-05-03T12:09:32.778Z,52.59
2023-05-03T12:12:03.420Z,51.33
2023-05-03T12:15:03.818Z,51.71
2023-05-03T12:17:43.411Z,51.95
2023-05-03T12:22:56.043Z,50.91
2023-05-03T12:25:26.218Z,50.59
2023-05-03T12:28:18.018Z,49.99
2023-05-03T12:30:46.771Z,50.00
2023-05-03T12:33:16.893Z,49.89
2023-05-03T12:35:47.712Z,49.99
2023-05-03T12:38:17.476Z,48.25
2023-05-03T12:40:47.249Z,48.33
2023-05-03T12:43:15.229Z,48.85
2023-05-03T12:45:46.976Z,49.49
2023-05-03T12:48:20.841Z,48.73
2023-05-03T12:50:51.880Z,49.23
2023-05-03T12:55:51.653Z,48.55
2023-05-03T13:01:25.293Z,49.10
2023-05-03T13:03:43.687Z,48.72
2023-05-03T13:06:13.939Z,46.01
2023-05-03T13:08:49.733Z,46.49
2023-05-03T13:11:19.833Z,46.66
2023-05-03T13:13:47.983Z,46.77
2023-05-03T13:16:16.028Z,47.07
2023-05-03T13:18:45.594Z,47.56
2023-05-03T13:21:13.731Z,48.06
2023-05-03T13:23:41.536Z,49.03
2023-05-03T13:26:09.326Z,48.46
2023-05-03T13:28:37.102Z,48.66
2023-05-03T13:31:05.564Z,47.57
2023-05-03T13:33:33.185Z,48.41
2023-05-03T13:36:00.855Z,48.73
2023-05-03T13:38:28.432Z,48.95
2023-05-03T13:40:56.075Z,48.75
2023-05-03T13:43:24.006Z,48.33
2023-05-03T13:45:53.055Z,47.44
2023-05-03T13:48:21.607Z,47.26
2023-05-03T13:50:49.456Z,46.84
2023-05-03T13:53:17.337Z,45.79
2023-05-03T13:55:45.124Z,47.00
2023-05-03T13:58:12.858Z,46.15
2023-05-03T14:00:40.628Z,47.43
2023-05-03T14:03:08.389Z,46.85
2023-05-03T14:05:36.364Z,47.89
2023-05-03T14:08:05.174Z,48.29
2023-05-03T14:10:36.032Z,48.37
2023-05-03T14:13:03.749Z,46.23
2023-05-03T14:15:32.038Z,46.60
2023-05-03T14:18:02.988Z,46.99
2023-05-03T14:20:34.234Z,47.43
2023-05-03T14:23:03.242Z,47.67
2023-05-03T14:25:30.878Z,47.57
2023-05-03T14:27:58.525Z,47.67
2023-05-03T14:30:26.125Z,47.53
2023-05-03T14:32:53.774Z,47.23
2023-05-03T14:35:22.819Z,46.19
2023-05-03T14:37:50.513Z,46.13
2023-05-03T14:40:18.190Z,46.13
2023-05-03T14:42:49.456Z,45.44
2023-05-03T14:45:17.347Z,44.97
2023-05-03T14:47:46.018Z,45.48
2023-05-03T14:50:13.805Z,45.91
2023-05-03T14:52:41.422Z,46.10
2023-05-03T14:55:09.740Z,46.14
2023-05-03T14:57:38.275Z,46.92
2023-05-03T15:00:14.118Z,46.39
2023-05-03T15:02:42.378Z,46.51
2023-05-03T15:05:10.971Z,46.90
2023-05-03T15:07:39.399Z,46.63
2023-05-03T15:10:08.091Z,46.66
2023-05-03T15:12:37.932Z,46.45
2023-05-03T15:15:08.174Z,46.22
2023-05-03T15:17:37.171Z,46.25
2023-05-03T15:20:06.612Z,46.70
2023-05-03T15:22:36.799Z,46.55
2023-05-03T15:25:05.608Z,46.73
2023-05-03T15:27:33.566Z,45.70
2023-05-03T15:30:01.329Z,45.45
2023-05-03T15:32:29.036Z,45.92
2023-05-03T15:34:58.051Z,46.82
2023-05-03T15:37:37.971Z,47.02
2023-05-03T15:40:09.379Z,47.13
2023-05-03T15:42:37.685Z,46.92
2023-05-03T15:45:06.703Z,47.00
2023-05-03T15:47:34.397Z,46.69
2023-05-03T15:50:02.980Z,46.10
2023-05-03T15:52:30.963Z,46.02
2023-05-03T15:54:58.601Z,46.18
2023-05-03T15:57:26.844Z,45.86
2023-05-03T15:59:54.820Z,45.90
2023-05-03T16:02:22.567Z,46.10
2023-05-03T16:04:50.774Z,46.34
2023-05-03T16:07:18.586Z,46.27
2023-05-03T16:09:46.718Z,46.37
2023-05-03T16:12:14.323Z,46.74
2023-05-03T16:14:42.002Z,46.03
2023-05-03T16:17:10.117Z,46.08
2023-05-03T16:19:37.745Z,45.17
2023-05-03T16:22:06.097Z,45.67
2023-05-03T16:24:35.036Z,45.31
2023-05-03T16:27:03.655Z,45.51
2023-05-03T16:29:33.451Z,45.29
2023-05-03T16:32:01.491Z,45.80
2023-05-03T16:34:29.405Z,45.85
2023-05-03T16:36:57.029Z,46.08
2023-05-03T16:39:24.617Z,46.36
2023-05-03T16:41:52.340Z,46.31
2023-05-03T16:44:20.066Z,46.43
2023-05-03T16:46:48.792Z,46.20
2023-05-03T16:49:18.392Z,46.42
2023-05-03T16:51:46.004Z,46.55
2023-05-03T16:54:16.348Z,46.70
2023-05-03T16:56:44.482Z,46.75
2023-05-03T16:59:12.223Z,47.17
2023-05-03T17:01:39.879Z,47.05
2023-05-03T17:04:07.550Z,47.10
2023-05-03T17:06:35.511Z,47.18
2023-05-03T17:09:04.516Z,47.31
2023-05-03T17:11:32.196Z,47.52
2023-05-03T17:14:02.448Z,47.74
2023-05-03T17:16:30.219Z,47.87
2023-05-03T17:18:57.863Z,47.99
2023-05-03T17:21:25.459Z,48.23
2023-05-03T17:23:53.115Z,48.33
2023-05-03T17:26:21.531Z,48.56
2023-05-03T17:28:49.161Z,48.74
2023-05-03T17:31:16.929Z,48.94
2023-05-03T17:33:44.523Z,49.11
2023-05-03T17:36:12.334Z,49.22
2023-05-03T17:38:39.990Z,49.41
2023-05-03T17:41:08.992Z,49.68
2023-05-03T17:43:37.839Z,49.89
2023-05-03T17:46:10.991Z,49.96
2023-05-03T17:48:42.319Z,50.13
2023-05-03T17:51:13.681Z,50.57
2023-05-03T17:53:42.679Z,51.03
2023-05-03T17:56:17.581Z,51.36
2023-05-03T17:58:46.621Z,52.15
2023-05-03T18:01:16.007Z,52.53
2023-05-03T18:03:43.879Z,52.88
2023-05-03T18:06:13.339Z,53.27
2023-05-03T18:08:44.182Z,54.03
2023-05-03T18:11:11.983Z,54.84
2023-05-03T18:13:41.198Z,55.29
2023-05-03T18:16:09.633Z,56.08
2023-05-03T18:18:37.551Z,56.58
2023-05-03T18:21:05.545Z,57.26
2023-05-03T18:23:33.775Z,57.82
2023-05-03T18:26:01.530Z,58.56
2023-05-03T18:28:29.866Z,59.05
2023-05-03T18:30:57.579Z,59.69
2023-05-03T18:33:25.308Z,59.91
2023-05-03T18:35:53.708Z,60.23
2023-05-03T18:38:21.713Z,61.02
2023-05-03T18:40:49.985Z,61.95
2023-05-03T18:43:17.904Z,62.19
2023-05-03T18:45:45.618Z,62.86
2023-05-03T18:48:13.318Z,63.14
2023-05-03T18:50:44.101Z,63.42
2023-05-03T18:53:11.953Z,63.65
2023-05-03T18:55:39.996Z,64.08
2023-05-03T18:58:07.666Z,64.40
2023-05-03T19:00:35.348Z,64.91
2023-05-03T19:03:04.107Z,65.53
2023-05-03T19:05:31.950Z,66.06
2023-05-03T19:07:59.886Z,66.71
2023-05-03T19:10:27.550Z,67.14
2023-05-03T19:12:55.215Z,67.50
2023-05-03T19:15:23.296Z,67.86
2023-05-03T19:17:50.939Z,68.03
2023-05-03T19:20:18.743Z,68.63
2023-05-03T19:22:46.407Z,68.90
2023-05-03T19:25:15.048Z,68.96
2023-05-03T19:27:42.669Z,69.22
2023-05-03T19:30:11.119Z,69.52
2023-05-03T19:32:39.281Z,69.84
2023-05-03T19:35:11.025Z,70.24
2023-05-03T19:37:38.760Z,70.68
2023-05-03T19:40:07.446Z,71.35
2023-05-03T19:42:35.154Z,71.44
2023-05-03T19:45:03.947Z,71.73
2023-05-03T19:47:31.639Z,72.33
2023-05-03T19:49:59.673Z,72.26
2023-05-03T19:52:27.243Z,72.62
2023-05-03T19:54:56.304Z,72.60
2023-05-03T19:57:24.279Z,73.18
2023-05-03T19:59:51.895Z,73.57
2023-05-03T20:02:20.296Z,73.99
2023-05-03T20:04:49.513Z,74.00
2023-05-03T20:07:17.140Z,74.51
2023-05-03T20:09:44.720Z,74.53
2023-05-03T20:12:13.709Z,74.37
2023-05-03T20:14:41.392Z,74.85
2023-05-03T20:17:09.020Z,75.25
2023-05-03T20:19:36.637Z,75.30
2023-05-03T20:22:04.298Z,75.44
2023-05-03T20:24:31.901Z,75.66
2023-05-03T20:26:59.502Z,76.11
2023-05-03T20:29:27.394Z,76.37
2023-05-03T20:31:55.072Z,76.77
2023-05-03T20:34:22.823Z,77.00
2023-05-03T20:36:51.825Z,77.02
2023-05-03T20:39:19.590Z,77.23
2023-05-03T20:41:47.376Z,77.73
2023-05-03T20:44:15.009Z,77.47
2023-05-03T20:46:42.659Z,78.04
2023-05-03T20:49:10.689Z,78.54
2023-05-03T20:51:38.309Z,78.45
2023-05-03T20:54:06.123Z,79.01
2023-05-03T20:56:33.835Z,79.16
2023-05-03T20:59:03.376Z,79.50
2023-05-03T21:01:31.560Z,79.40
2023-05-03T21:03:59.432Z,79.38
2023-05-03T21:06:27.300Z,79.32
2023-05-03T21:08:54.899Z,79.45
2023-05-03T21:11:22.518Z,79.80
2023-05-03T21:13:50.115Z,79.65
2023-05-03T21:16:17.784Z,80.21
2023-05-03T21:18:45.823Z,80.64
2023-05-03T21:21:14.101Z,80.53
2023-05-03T21:23:41.743Z,80.49
2023-05-03T21:26:09.347Z,80.63
2023-05-03T21:28:37.302Z,80.85
2023-05-03T21:31:05.587Z,81.13
2023-05-03T21:33:33.682Z,81.12
2023-05-03T21:36:01.343Z,81.56
2023-05-03T21:38:29.228Z,81.40
2023-05-03T21:41:06.655Z,81.87
2023-05-03T21:43:35.479Z,82.12
2023-05-03T21:46:07.867Z,82.19
2023-05-03T21:48:37.177Z,82.33
2023-05-03T21:51:05.040Z,82.46
2023-05-03T21:53:33.409Z,82.68
2023-05-03T21:56:01.029Z,82.57
2023-05-03T21:58:29.153Z,82.94
2023-05-03T22:00:57.433Z,83.32
2023-05-03T22:03:25.266Z,83.15
2023-05-03T22:05:53.176Z,83.39
2023-05-03T22:11:14.018Z,83.52
2023-05-03T22:13:58.683Z,83.50
2023-05-03T22:16:29.654Z,83.68
2023-05-03T22:18:58.468Z,83.93
2023-05-03T22:21:26.241Z,84.00
2023-05-03T22:23:53.852Z,84.19
2023-05-03T22:26:21.514Z,84.06
2023-05-03T22:28:49.413Z,84.30
2023-05-03T22:31:17.712Z,84.31
2023-05-03T22:33:47.135Z,84.34
2023-05-03T22:36:15.161Z,84.44
2023-05-03T22:38:43.224Z,84.48
2023-05-03T22:41:11.263Z,84.77
2023-05-03T22:43:38.897Z,84.66
2023-05-03T22:46:06.581Z,84.84
2023-05-03T22:48:34.798Z,85.01
2023-05-03T22:51:02.753Z,85.12
2023-05-03T22:53:30.407Z,85.40
2023-05-03T22:56:04.317Z,85.31
2023-05-03T22:58:33.503Z,85.31
2023-05-03T23:01:01.165Z,85.24
2023-05-03T23:03:29.104Z,85.45
2023-05-03T23:05:57.122Z,85.44
2023-05-03T23:08:24.695Z,85.61
2023-05-03T23:10:54.118Z,85.56
2023-05-03T23:13:21.719Z,85.92
2023-05-03T23:15:49.395Z,85.90
2023-05-03T23:18:17.616Z,86.10
2023-05-03T23:20:45.230Z,86.37
2023-05-03T23:23:12.809Z,86.23
2023-05-03T23:25:40.392Z,86.31
2023-05-03T23:28:08.154Z,86.26
2023-05-03T23:30:36.509Z,86.56
2023-05-03T23:33:04.881Z,86.69
2023-05-03T23:35:33.026Z,86.86
2023-05-03T23:38:00.645Z,86.76
2023-05-03T23:40:28.366Z,86.96
2023-05-03T23:42:56.046Z,87.15
2023-05-03T23:45:23.644Z,87.24
2023-05-03T23:47:51.440Z,87.19
2023-05-03T23:50:19.329Z,87.39
2023-05-03T23:52:46.995Z,87.72
2023-05-03T23:55:14.617Z,87.68
2023-05-03T23:57:42.197Z,87.92
